KGSB/GSB METAR and TAF weather

Enter ICAO airport designator
Station Type Date Time Source
KGSB METAR 2022/07/01 01:56 UTC NOAA

KGSB 010156Z AUTO 17004KT 10SM CLR 26/18 A3016 RMK AO2 SLP216 T02550182 $


Station Type Date Time Source
KGSB Decoded METAR 2022/07/01 01:56 UTC NOAA

Seymour-Johnson Air Force Base, NC, United States (KGSB) 35-20N 077-58W
Jun 30, 2022 - 09:56 PM EDT / 2022.07.01 0156 UTC
Wind: from the S (170 degrees) at 5 MPH (4 KT):0
Visibility: 10 mile(s):0
Sky conditions: clear
Temperature: 77.9 F (25.5 C)
Dew Point: 64.8 F (18.2 C)
Relative Humidity: 64%
Pressure (altimeter): 30.16 in. Hg (1021 hPa)
ob: KGSB 010156Z AUTO 17004KT 10SM CLR 26/18 A3016 RMK AO2 SLP216 T02550182
cycle: 2

Station Type Date Time Source
KGSB TAF 2022/06/30 23:09 UTC NOAA

TAF TAF
AMD KGSB 302300Z 3023/0202 14009KT 9999 BKN050 BKN140 BKN200 QNH3011INS
BECMG 0106/0107 16006KT 1200 BR OVC004 QNH3010INS
BECMG 0114/0115 19009KT 9999 NSW FEW020 BKN035 BKN130 QNH3002INS
TEMPO 0119/0122 20015G30KT 3200 TSRA BKN022CB TX28/3023Z TN20/0109Z LAST NO
AMDS AFT 3023 NEXT 0504

Example: see airport list